AirNav   Air Wisconsin Up To $57,000 Bonus
 
 518 users online  

18AL Louisville Stagefield Army Heliport
Fort Rucker/Louisville, Alabama, USA

GOING TO FORT RUCKER/LOUISVILLE?


FAA INFORMATION EFFECTIVE 08 SEPTEMBER 2022

Location

FAA Identifier: 18AL
Lat/Long: 31-49-00.0700N 085-39-06.5400W
31-49.001167N 085-39.109000W
31.8166861,-85.6518167
(estimated)
Elevation: 385 ft. / 117 m (estimated)
Variation: 02W (2000)
From city: 5 miles NW of central business district of the associated city
Time zone: UTC -5 (UTC -6 during Standard Time)
Zip code: 36048

Heliport Operations

Heliport use: Private use. Permission required prior to landing
Activation date: 05/2002
Control tower: no
ARTCC: JACKSONVILLE CENTER
FSS: ANNISTON FLIGHT SERVICE STATION
NOTAMs facility: OZR (NOTAM-D service available)
Attendance: ATTENDED DURG SKED TRNG
FOR TRNG SKED DAYS/HRS CTC AT&A OFFICER AT 334-255-9764.
Segmented circle: no

Heliport Communications

OPS: 126.2
WX ASOS at TOI (19 nm W): PHONE 334-566-3081

Nearby radio navigation aids

VOR radial/distance  VOR name  Freq  Var
HEYr003/(26.6)HANCHEY VOR110.6003W
EUFr251/27.7EUFAULA VORTAC109.2002E
OZRr010/33.1CAIRNS VOR/DME111.2003W
EDNr025/(33.8)ENTERPRISE VOR116.6003W
RRSr339/33.9WIREGRASS VORTAC111.6002E

 
NDB name  Hdg/Dist  Freq  Var  ID
BLOOD096/23.236504WTOI - --- ..
HANCHEY003/26.422103WHYE .... -.-- .
LOWE013/27.726903WLOR .-.. --- .-.
BOLL WEEVIL034/33.235203WBVG -... ...- --.

Heliport Services

Runway Information

Helipad H1

Dimensions: 1000 x 75 ft. / 305 x 23 m
Surface: asphalt
Traffic pattern: leftleft

Helipad H2

Dimensions: 1000 x 75 ft. / 305 x 23 m
Surface: asphalt
Traffic pattern: leftleft

Helipad H3

Dimensions: 1000 x 75 ft. / 305 x 23 m
Surface: asphalt
Traffic pattern: leftleft

Helipad H4

Dimensions: 1000 x 75 ft. / 305 x 23 m
Surface: asphalt
Traffic pattern: leftleft

Heliport Ownership and Management from official FAA records

Ownership: U.S. Army
Owner: US ARMY AVIATION CTR & FORT RUCKER
NOVOSEL ST
FORT RUCKER, AL 36362
Phone 334-255-9764
Manager: JACK A HOLMES
USAACE G3 AIR,
FORT RUCKER, AL 36362
Phone 334-255-9764

Additional Remarks

FOR CD CTC CAIRNS APCH AT 334-255-8402 OR 334-255-8460, WHEN APCH CLSD CTC JACKSONVILLE ARTCC AT 904-845-1592.

Instrument Procedures

There are no published instrument procedures at 18AL.

Some nearby airports with instrument procedures:

11A - Clayton Municipal Airport (9 nm NE)
KTOI - Troy Municipal Airport at N Kenneth Campbell Field (19 nm W)
71J - Ozark/Blackwell Field Airport (23 nm S)
KHEY - Hanchey Army Heliport (Fort Rucker) (28 nm S)
KEUF - Weedon Field Airport (28 nm E)
 
Loc | Ops | Rwys | IFR | FBO | Links
Com | Nav | Svcs | Stats | Notes
Area around 18AL (Louisville Stagefield Army Heliport)
 
Road maps at: MapQuest Bing Google
 
Aerial photo
No photo
 
Sectional chart

 
Airport distance calculator
Flying to Louisville Stagefield Army Heliport? Find the distance to fly.

From to 18AL

Sunrise and sunset
Times for 01-Oct-2022
 Local
(UTC-5)
 Zulu
(UTC)
Morning civil twilight06:1311:13
Sunrise06:3711:37
Sunset18:2723:27
Evening civil twilight18:5123:51

Current date and time
Zulu (UTC)  02-Oct-2022 04:58:36
Local (UTC-5)  01-Oct-2022 23:58:36
 
METAR
KEUF 
28nm E 
020358Z AUTO 00000KT 10SM CLR 15/11 A2996 RMK AO2 SLP142 T01500111
KHEY 
28nm S 
020355Z AUTO 33005KT 9SM CLR 18/08 A2992 RMK AO2 SLP132 T01790082
KLOR 
28nm S 
020355Z AUTO 00000KT 10SM CLR 13/10 A2995 RMK AO2 SLP125 T01250102 $
KSXS 
29nm S 
020355Z AUTO 35004KT 10SM CLR 19/06 A2994 RMK AO2 SLP138 T01930061 TSNO $
KDHN 
32nm S 
020453Z AUTO 35007KT 10SM CLR 17/07 A2998 RMK AO2 SLP149 T01720067 403000111
KOZR 
32nm S 
020355Z AUTO 31006KT 10SM CLR 18/06 A2994 RMK AO2 SLP139 T01800059 $
KHDL 
32nm SE 
020435Z AUTO 32004KT 10SM CLR 16/08 A2995 RMK AO2 TSNO
KEDN 
34nm S 
020435Z AUTO 35005KT 10SM CLR 16/08 A2995 RMK AO2 T01640084
TAF
KTOI 
19nm W 
011720Z 0118/0218 31008KT P6SM SKC FM020200 VRB04KT P6SM SKC FM021500 34008KT P6SM FEW100 AMD NOT SKED
NOTAMs
Click for the latest NOTAMs
NOTAMs are issued by the DoD/FAA and will open in a separate window not controlled by AirNav.

 

 
 

Would you like to see your business listed on this page?

 If your business provides an interesting product or service to pilots, flight crews, aircraft, or users of the Louisville Stagefield Army Heliport, you should consider listing it here.  To start the listing process, click on the button below
 
Add a business
 

Other Pages about Louisville Stagefield Army Heliport

Update a link
 
Copyright © AirNav, LLC. All rights reserved. Privacy Policy  Contact